createdAt,value
2022-12-17T00:00:55.461Z,26.13
2022-12-17T00:03:45.593Z,28.67
2022-12-17T00:06:35.814Z,26.23
2022-12-17T00:09:32.727Z,29.23
2022-12-17T00:12:23.566Z,28.07
2022-12-17T00:15:14.500Z,30.07
2022-12-17T00:18:04.806Z,28.97
2022-12-17T00:20:55.206Z,28.73
2022-12-17T00:23:46.404Z,27.33
2022-12-17T00:26:39.156Z,26.83
2022-12-17T00:29:30.297Z,26.07
2022-12-17T00:32:20.533Z,23.00
2022-12-17T00:35:10.825Z,25.40
2022-12-17T00:38:07.227Z,23.60
2022-12-17T00:40:57.362Z,24.57
2022-12-17T00:43:48.821Z,24.40
2022-12-17T00:46:39.358Z,22.27
2022-12-17T00:49:29.551Z,29.87
2022-12-17T00:52:19.819Z,26.07
2022-12-17T00:55:09.994Z,24.60
2022-12-17T00:58:00.801Z,25.00
2022-12-17T01:00:52.342Z,24.83
2022-12-17T01:03:42.819Z,25.33
2022-12-17T01:06:33.011Z,27.17
2022-12-17T01:09:23.434Z,24.17
2022-12-17T01:12:13.834Z,26.20
2022-12-17T01:15:04.235Z,25.10
2022-12-17T01:17:56.218Z,24.27
2022-12-17T01:20:46.793Z,23.77
2022-12-17T01:23:37.233Z,24.83
2022-12-17T01:26:27.781Z,23.77
2022-12-17T01:29:18.024Z,24.97
2022-12-17T01:32:08.495Z,24.67
2022-12-17T01:34:59.894Z,23.67
2022-12-17T01:37:50.207Z,26.33
2022-12-17T01:40:40.018Z,24.03
2022-12-17T01:43:31.065Z,24.07
2022-12-17T01:46:21.226Z,21.63
2022-12-17T01:49:11.736Z,23.87
2022-12-17T01:52:03.819Z,23.67
2022-12-17T01:54:54.784Z,24.33
2022-12-17T01:57:45.549Z,24.07
2022-12-17T02:00:37.645Z,22.23
2022-12-17T02:03:32.223Z,20.60
2022-12-17T02:06:24.924Z,23.33
2022-12-17T02:09:22.307Z,22.23
2022-12-17T02:12:18.092Z,21.80
2022-12-17T02:15:13.944Z,21.60
2022-12-17T02:18:10.905Z,20.70
2022-12-17T02:21:03.166Z,18.30
2022-12-17T02:24:01.029Z,22.77
2022-12-17T02:26:55.100Z,20.53
2022-12-17T02:29:46.944Z,20.13
2022-12-17T02:32:37.486Z,21.20
2022-12-17T02:35:31.394Z,22.83
2022-12-17T02:38:34.686Z,24.03
2022-12-17T02:41:25.089Z,19.37
2022-12-17T02:44:17.842Z,20.90
2022-12-17T02:47:08.616Z,21.13
2022-12-17T02:50:01.860Z,21.17
2022-12-17T02:52:55.223Z,20.73
2022-12-17T02:55:45.310Z,22.97
2022-12-17T02:58:35.422Z,22.50
2022-12-17T03:01:27.471Z,17.27
2022-12-17T03:04:17.841Z,19.53
2022-12-17T03:07:08.230Z,16.43
2022-12-17T03:09:58.655Z,17.73
2022-12-17T03:12:51.897Z,18.60
2022-12-17T03:15:42.183Z,18.87
2022-12-17T03:18:37.293Z,18.23
2022-12-17T03:21:30.148Z,14.40
2022-12-17T03:24:20.333Z,17.30
2022-12-17T03:27:10.768Z,17.80
2022-12-17T03:30:01.107Z,17.73
2022-12-17T03:32:51.440Z,17.97
2022-12-17T03:35:43.197Z,17.83
2022-12-17T03:38:33.734Z,19.60
2022-12-17T03:41:24.235Z,19.70
2022-12-17T03:44:14.424Z,19.17
2022-12-17T03:47:04.658Z,20.70
2022-12-17T03:49:54.737Z,23.10
2022-12-17T03:52:46.440Z,17.90
2022-12-17T03:55:44.914Z,20.57
2022-12-17T03:58:35.644Z,20.27
2022-12-17T04:01:25.921Z,20.30
2022-12-17T04:04:27.095Z,19.60
2022-12-17T04:07:17.091Z,19.10
2022-12-17T04:10:09.122Z,19.57
2022-12-17T04:13:02.658Z,19.97
2022-12-17T04:15:53.132Z,19.27
2022-12-17T04:18:43.476Z,20.50
2022-12-17T04:21:39.991Z,20.47
2022-12-17T04:24:30.329Z,21.17
2022-12-17T04:27:21.657Z,20.50
2022-12-17T04:30:11.934Z,22.07
2022-12-17T04:33:03.820Z,22.47
2022-12-17T04:35:54.543Z,23.13
2022-12-17T04:38:46.223Z,23.40
2022-12-17T04:41:36.334Z,20.83
2022-12-17T04:44:30.521Z,24.43
2022-12-17T04:47:20.909Z,19.67
2022-12-17T04:50:11.393Z,20.87
2022-12-17T04:53:01.690Z,20.47
2022-12-17T04:55:52.157Z,19.30
2022-12-17T04:58:42.592Z,20.67
2022-12-17T05:01:34.316Z,20.63
2022-12-17T05:04:24.989Z,19.47
2022-12-17T05:07:15.522Z,18.77
2022-12-17T05:10:05.718Z,17.27
2022-12-17T05:12:56.072Z,17.63
2022-12-17T05:15:52.724Z,19.27
2022-12-17T05:18:44.830Z,18.70
2022-12-17T05:21:35.136Z,13.07
2022-12-17T05:24:25.451Z,17.60
2022-12-17T05:27:15.800Z,17.40
2022-12-17T05:30:14.435Z,18.60
2022-12-17T05:33:04.641Z,19.90
2022-12-17T05:35:56.294Z,19.17
2022-12-17T05:38:46.642Z,17.90
2022-12-17T05:41:36.939Z,17.33
2022-12-17T05:44:27.124Z,19.17
2022-12-17T05:47:17.432Z,18.43
2022-12-17T05:50:23.396Z,15.97
2022-12-17T05:53:20.426Z,17.67
2022-12-17T05:56:11.136Z,19.23
2022-12-17T05:59:01.626Z,19.27
2022-12-17T06:01:52.159Z,16.93
2022-12-17T06:04:42.649Z,19.43
2022-12-17T06:07:35.270Z,18.83
2022-12-17T06:10:27.661Z,19.53
2022-12-17T06:13:18.048Z,19.43
2022-12-17T06:16:08.522Z,19.30
2022-12-17T06:18:59.034Z,21.90
2022-12-17T06:22:00.292Z,22.40
2022-12-17T06:24:50.343Z,19.33
2022-12-17T06:27:42.014Z,20.50
2022-12-17T06:30:34.175Z,19.70
2022-12-17T06:33:24.438Z,19.67
2022-12-17T06:36:21.941Z,20.13
2022-12-17T06:39:27.429Z,18.30
2022-12-17T06:42:17.626Z,18.53
2022-12-17T06:45:09.085Z,18.13
2022-12-17T06:47:58.550Z,16.43
2022-12-17T06:50:55.918Z,17.90
2022-12-17T06:53:51.373Z,17.17
2022-12-17T06:56:38.101Z,18.43
2022-12-17T06:59:28.557Z,18.63
2022-12-17T07:02:20.383Z,21.43
2022-12-17T07:05:10.634Z,18.27
2022-12-17T07:08:00.787Z,19.40
2022-12-17T07:10:56.244Z,19.23
2022-12-17T07:13:47.657Z,20.57
2022-12-17T07:16:38.102Z,19.23
2022-12-17T07:19:44.255Z,19.10
2022-12-17T07:22:35.913Z,18.47
2022-12-17T07:25:27.175Z,20.80
2022-12-17T07:28:17.203Z,21.10
2022-12-17T07:31:07.507Z,21.30
2022-12-17T07:33:58.086Z,20.37
2022-12-17T07:36:49.595Z,21.47
2022-12-17T07:39:40.025Z,22.17
2022-12-17T07:42:31.201Z,22.23
2022-12-17T07:45:21.437Z,20.90
2022-12-17T07:48:11.841Z,19.57
2022-12-17T07:51:02.200Z,21.70
2022-12-17T07:53:54.255Z,21.10
2022-12-17T07:56:44.559Z,22.17
2022-12-17T07:59:34.901Z,18.30
2022-12-17T08:02:25.872Z,21.27
2022-12-17T08:05:19.034Z,21.73
2022-12-17T08:08:09.188Z,22.57
2022-12-17T08:11:00.891Z,22.83
2022-12-17T08:13:51.218Z,21.53
2022-12-17T08:16:49.618Z,15.93
2022-12-17T08:19:48.213Z,15.57
2022-12-17T08:22:38.826Z,21.77
2022-12-17T08:25:29.351Z,21.27
2022-12-17T08:28:48.994Z,20.33
2022-12-17T08:31:31.338Z,18.30
2022-12-17T08:34:21.559Z,19.63
2022-12-17T08:37:11.017Z,16.30
2022-12-17T08:40:01.526Z,20.73
2022-12-17T08:42:51.815Z,20.30
2022-12-17T08:45:58.136Z,20.23
2022-12-17T08:48:48.691Z,19.93
2022-12-17T08:51:38.786Z,19.90
2022-12-17T08:54:29.168Z,20.50
2022-12-17T08:57:30.779Z,18.63
2022-12-17T09:00:18.960Z,20.03
2022-12-17T09:03:16.348Z,20.37
2022-12-17T09:06:10.814Z,20.27
2022-12-17T09:09:00.993Z,21.07
2022-12-17T09:11:51.323Z,21.47
2022-12-17T09:14:41.495Z,22.03
2022-12-17T09:17:33.295Z,18.43
2022-12-17T09:20:29.216Z,18.60
2022-12-17T09:23:19.794Z,21.03
2022-12-17T09:26:16.426Z,21.37
2022-12-17T09:29:06.968Z,21.03
2022-12-17T09:31:57.252Z,22.17
2022-12-17T09:35:02.300Z,21.17
2022-12-17T09:37:54.246Z,15.87
2022-12-17T09:40:45.937Z,18.20
2022-12-17T09:43:42.497Z,17.13
2022-12-17T09:46:37.235Z,20.20
2022-12-17T09:49:33.531Z,18.77
2022-12-17T09:52:33.941Z,19.83
2022-12-17T09:55:32.426Z,20.23
2022-12-17T09:58:22.852Z,19.13
2022-12-17T10:01:13.347Z,20.50
2022-12-17T10:04:04.458Z,20.20
2022-12-17T10:06:54.858Z,21.53
2022-12-17T10:09:45.752Z,20.10
2022-12-17T10:12:43.400Z,21.23
2022-12-17T10:15:36.831Z,21.07
2022-12-17T10:18:26.360Z,18.83
2022-12-17T10:21:17.144Z,22.93
2022-12-17T10:24:29.324Z,21.57
2022-12-17T10:27:26.819Z,20.33
2022-12-17T10:30:18.911Z,22.13
2022-12-17T10:33:13.345Z,22.83
2022-12-17T10:36:03.650Z,22.07
2022-12-17T10:38:55.426Z,22.07
2022-12-17T10:41:48.429Z,20.47
2022-12-17T10:44:43.790Z,22.03
2022-12-17T10:47:36.252Z,22.10
2022-12-17T10:50:28.472Z,20.63
2022-12-17T10:53:19.269Z,21.17
2022-12-17T10:56:11.283Z,22.93
2022-12-17T10:59:03.273Z,21.13
2022-12-17T11:01:55.187Z,21.23
2022-12-17T11:04:50.082Z,22.83
2022-12-17T11:07:43.396Z,22.33
2022-12-17T11:10:34.859Z,21.80
2022-12-17T11:13:28.338Z,21.70
2022-12-17T11:16:19.339Z,21.27
2022-12-17T11:19:11.835Z,20.17
2022-12-17T11:22:05.838Z,21.13
2022-12-17T11:25:00.926Z,20.73
2022-12-17T11:27:55.589Z,21.40
2022-12-17T11:30:46.399Z,22.70
2022-12-17T11:33:39.052Z,18.83
2022-12-17T11:36:38.822Z,21.77
2022-12-17T11:39:34.075Z,17.97
2022-12-17T11:42:27.757Z,19.17
2022-12-17T11:45:20.599Z,16.63
2022-12-17T11:48:12.928Z,19.70
2022-12-17T11:51:04.876Z,19.90
2022-12-17T11:54:05.966Z,19.70
2022-12-17T11:56:59.908Z,20.70
2022-12-17T11:59:55.063Z,19.80
2022-12-17T12:02:59.415Z,20.23
2022-12-17T12:05:56.845Z,21.37
2022-12-17T12:08:48.824Z,20.97
2022-12-17T12:11:47.215Z,23.73
2022-12-17T12:14:46.567Z,21.07
2022-12-17T12:17:44.593Z,23.40
2022-12-17T12:20:42.872Z,22.87
2022-12-17T12:23:37.175Z,23.27
2022-12-17T12:26:31.447Z,19.50
2022-12-17T12:29:29.260Z,17.53
2022-12-17T12:32:28.585Z,16.93
2022-12-17T12:35:19.405Z,21.73
2022-12-17T12:38:13.081Z,19.10
2022-12-17T12:41:20.568Z,18.20
2022-12-17T12:44:13.348Z,19.43
2022-12-17T12:47:06.200Z,18.87
2022-12-17T12:50:01.864Z,15.67
2022-12-17T12:52:52.191Z,20.33
2022-12-17T12:55:53.405Z,19.57
2022-12-17T12:58:45.023Z,19.23
2022-12-17T13:01:38.923Z,20.93
2022-12-17T13:04:35.383Z,19.90
2022-12-17T13:07:20.900Z,20.40
2022-12-17T13:09:54.828Z,17.30
2022-12-17T13:12:32.447Z,19.17
2022-12-17T13:15:18.415Z,16.67
2022-12-17T13:18:00.153Z,17.73
2022-12-17T13:20:33.793Z,20.20
2022-12-17T13:26:44.195Z,22.20
2022-12-17T13:29:24.633Z,22.23
2022-12-17T13:32:07.441Z,21.90
2022-12-17T13:34:50.128Z,23.53
2022-12-17T13:37:30.584Z,20.93
2022-12-17T13:40:13.165Z,21.37
2022-12-17T13:42:47.916Z,21.10
2022-12-17T13:45:22.983Z,19.77
2022-12-17T13:47:56.688Z,20.77
2022-12-17T13:50:35.190Z,21.30
2022-12-17T13:53:14.017Z,22.27
2022-12-17T13:55:51.289Z,22.47
2022-12-17T13:58:26.904Z,20.60
2022-12-17T14:01:06.900Z,21.17
2022-12-17T14:04:05.241Z,21.53
2022-12-17T14:06:35.610Z,20.00
2022-12-17T14:09:08.614Z,19.30
2022-12-17T14:11:59.049Z,19.30
2022-12-17T14:14:37.788Z,19.47
2022-12-17T14:17:20.609Z,22.47
2022-12-17T14:19:58.477Z,22.63
2022-12-17T14:22:41.510Z,23.60
2022-12-17T14:25:18.135Z,21.83
2022-12-17T14:27:56.726Z,17.63
2022-12-17T14:30:35.908Z,21.07
2022-12-17T14:33:24.450Z,22.80
2022-12-17T14:35:58.521Z,23.10
2022-12-17T14:38:42.957Z,21.97
2022-12-17T14:41:46.282Z,22.03
2022-12-17T14:44:21.870Z,26.77
2022-12-17T14:47:07.746Z,23.13
2022-12-17T14:49:55.361Z,21.63
2022-12-17T14:52:41.041Z,22.60
2022-12-17T14:55:28.351Z,22.90
2022-12-17T14:58:12.475Z,23.50
2022-12-17T15:00:46.663Z,24.47
2022-12-17T15:03:23.033Z,22.70
2022-12-17T15:05:57.815Z,22.73
2022-12-17T15:08:32.076Z,21.43
2022-12-17T15:11:05.053Z,22.07
2022-12-17T15:13:40.530Z,23.57
2022-12-17T15:16:13.340Z,23.73
2022-12-17T15:18:47.564Z,21.93
2022-12-17T15:21:23.842Z,23.33
2022-12-17T15:23:57.099Z,23.00
2022-12-17T15:26:29.906Z,25.50
2022-12-17T15:29:02.998Z,26.00
2022-12-17T15:31:36.138Z,24.90
2022-12-17T15:34:11.844Z,25.80
2022-12-17T15:36:47.101Z,22.90
2022-12-17T15:39:22.940Z,25.27
2022-12-17T15:42:13.116Z,24.43
2022-12-17T15:44:45.969Z,25.20
2022-12-17T15:47:18.696Z,26.37
2022-12-17T15:49:53.283Z,25.30
2022-12-17T15:52:26.063Z,22.97
2022-12-17T15:54:59.153Z,21.20
2022-12-17T15:57:32.140Z,24.17
2022-12-17T16:00:05.970Z,26.67
2022-12-17T16:02:39.527Z,26.57
2022-12-17T16:05:14.090Z,24.80
2022-12-17T16:07:46.787Z,24.07
2022-12-17T16:10:21.729Z,23.97
2022-12-17T16:12:54.610Z,24.33
2022-12-17T16:15:27.753Z,25.57
2022-12-17T16:18:00.723Z,25.90
2022-12-17T16:20:35.016Z,25.50
2022-12-17T16:23:13.747Z,25.17
2022-12-17T16:25:47.216Z,25.27
2022-12-17T16:28:19.982Z,35.30
2022-12-17T16:31:03.949Z,30.10
2022-12-17T16:33:38.761Z,25.13
2022-12-17T16:36:15.668Z,25.70
2022-12-17T16:38:50.297Z,25.37
2022-12-17T16:41:24.378Z,22.27
2022-12-17T16:43:58.019Z,23.27
2022-12-17T16:46:32.188Z,23.53
2022-12-17T16:49:07.880Z,25.40
2022-12-17T16:51:42.283Z,23.97
2022-12-17T16:54:16.025Z,22.23
2022-12-17T16:56:50.427Z,23.57
2022-12-17T16:59:24.429Z,22.67
2022-12-17T17:01:58.303Z,24.53
2022-12-17T17:04:31.316Z,23.93
2022-12-17T17:07:07.621Z,22.77
2022-12-17T17:09:40.390Z,26.37
2022-12-17T17:12:13.714Z,25.20
2022-12-17T17:14:46.659Z,25.53
2022-12-17T17:17:19.625Z,25.67
2022-12-17T17:20:13.172Z,23.33
2022-12-17T17:22:47.777Z,23.97
2022-12-17T17:25:20.498Z,22.93
2022-12-17T17:27:54.672Z,25.97
2022-12-17T17:30:28.271Z,24.87
2022-12-17T17:33:01.017Z,24.70
2022-12-17T17:35:36.828Z,22.90
2022-12-17T17:38:11.657Z,20.30
2022-12-17T17:40:44.888Z,20.73
2022-12-17T17:43:19.012Z,21.53
2022-12-17T17:45:53.081Z,21.43
2022-12-17T17:48:28.037Z,22.93
2022-12-17T17:51:04.072Z,23.33
2022-12-17T17:53:38.387Z,25.17
2022-12-17T17:56:14.914Z,25.10
2022-12-17T17:58:49.411Z,24.70
2022-12-17T18:01:24.928Z,24.93
2022-12-17T18:04:08.001Z,23.77
2022-12-17T18:06:57.437Z,24.73
2022-12-17T18:09:36.217Z,25.73
2022-12-17T18:12:22.873Z,23.67
2022-12-17T18:17:51.497Z,24.67
2022-12-17T18:20:24.441Z,23.50
2022-12-17T18:22:57.318Z,22.63
2022-12-17T18:25:37.709Z,22.53
2022-12-17T18:28:10.681Z,23.13
2022-12-17T18:30:43.953Z,24.07
2022-12-17T18:33:16.579Z,23.97
2022-12-17T18:35:49.337Z,54.03
2022-12-17T18:38:22.237Z,35.50
2022-12-17T18:40:56.482Z,32.80
2022-12-17T18:43:28.352Z,32.03
2022-12-17T18:46:04.607Z,30.40
2022-12-17T18:48:37.526Z,23.90
2022-12-17T18:51:10.641Z,22.07
2022-12-17T18:53:43.382Z,25.37
2022-12-17T18:56:37.923Z,24.27
2022-12-17T18:59:13.616Z,22.90
2022-12-17T19:01:47.218Z,22.80
2022-12-17T19:04:20.816Z,23.53
2022-12-17T19:06:54.092Z,21.07
2022-12-17T19:09:31.152Z,25.93
2022-12-17T19:12:06.442Z,24.13
2022-12-17T19:14:39.216Z,22.70
2022-12-17T19:17:12.145Z,22.40
2022-12-17T19:19:44.923Z,21.03
2022-12-17T19:22:20.160Z,21.57
2022-12-17T19:24:53.015Z,21.20
2022-12-17T19:27:28.848Z,20.87
2022-12-17T19:30:01.762Z,18.53
2022-12-17T19:32:36.988Z,21.30
2022-12-17T19:35:09.800Z,20.07
2022-12-17T19:37:42.641Z,20.13
2022-12-17T19:40:15.474Z,20.80
2022-12-17T19:42:49.581Z,20.40
2022-12-17T19:45:22.625Z,20.00
2022-12-17T19:47:57.866Z,19.53
2022-12-17T19:50:30.507Z,18.77
2022-12-17T19:53:03.434Z,16.33
2022-12-17T19:55:36.120Z,19.07
2022-12-17T19:58:10.275Z,18.13
2022-12-17T20:00:43.018Z,18.30
2022-12-17T20:03:16.340Z,17.73
2022-12-17T20:05:49.103Z,21.50
2022-12-17T20:08:23.043Z,23.83
2022-12-17T20:10:56.179Z,19.67
2022-12-17T20:13:30.322Z,18.67
2022-12-17T20:16:03.940Z,17.43
2022-12-17T20:18:37.050Z,18.20
2022-12-17T20:21:12.194Z,19.97
2022-12-17T20:23:47.012Z,25.30
2022-12-17T20:26:20.216Z,21.03
2022-12-17T20:28:57.071Z,22.43
2022-12-17T20:31:32.865Z,19.00
2022-12-17T20:34:06.603Z,18.90
2022-12-17T20:36:40.418Z,18.30
2022-12-17T20:39:13.653Z,19.87
2022-12-17T20:41:47.300Z,18.53
2022-12-17T20:44:21.778Z,20.30
2022-12-17T20:46:54.840Z,18.07
2022-12-17T20:49:27.703Z,19.20
2022-12-17T20:52:01.968Z,21.57
2022-12-17T20:54:35.249Z,19.50
2022-12-17T20:57:08.021Z,19.43
2022-12-17T20:59:44.901Z,20.10
2022-12-17T21:02:20.459Z,18.33
2022-12-17T21:04:53.806Z,18.37
2022-12-17T21:07:26.556Z,19.37
2022-12-17T21:10:02.069Z,18.20
2022-12-17T21:12:48.898Z,19.30
2022-12-17T21:15:23.168Z,18.60
2022-12-17T21:17:56.053Z,18.03
2022-12-17T21:20:30.154Z,20.97
2022-12-17T21:23:05.335Z,18.70
2022-12-17T21:25:41.358Z,19.33
2022-12-17T21:28:14.129Z,18.27
2022-12-17T21:30:49.073Z,20.13
2022-12-17T21:33:21.949Z,18.93
2022-12-17T21:35:59.122Z,18.57
2022-12-17T21:38:32.472Z,18.77
2022-12-17T21:41:12.965Z,19.00
2022-12-17T21:43:48.905Z,19.83
2022-12-17T21:46:23.665Z,19.00
2022-12-17T21:48:57.763Z,19.57
2022-12-17T21:51:31.058Z,18.00
2022-12-17T21:54:08.729Z,19.40
2022-12-17T21:56:45.945Z,26.20
2022-12-17T21:59:18.846Z,19.37
2022-12-17T22:01:54.000Z,19.43
2022-12-17T22:04:27.256Z,18.43
2022-12-17T22:07:10.672Z,16.43
2022-12-17T22:10:13.878Z,15.90
2022-12-17T22:12:55.028Z,16.50
2022-12-17T22:15:28.439Z,15.53
2022-12-17T22:18:06.733Z,15.57
2022-12-17T22:20:39.543Z,16.77
2022-12-17T22:23:12.708Z,14.17
2022-12-17T22:25:47.229Z,16.20
2022-12-17T22:28:20.140Z,15.10
2022-12-17T22:31:10.903Z,16.30
2022-12-17T22:35:04.542Z,14.83
2022-12-17T22:40:41.353Z,15.57
2022-12-17T22:44:33.363Z,15.90
2022-12-17T22:44:42.954Z,16.00
2022-12-17T22:45:39.490Z,14.67
2022-12-17T22:48:12.980Z,16.67
2022-12-17T22:50:51.679Z,16.30
2022-12-17T22:53:29.666Z,17.87
2022-12-17T22:56:13.407Z,16.77
2022-12-17T22:58:57.561Z,18.07
2022-12-17T23:01:30.696Z,14.70
2022-12-17T23:04:04.710Z,17.00
2022-12-17T23:06:39.437Z,16.70
2022-12-17T23:09:12.251Z,14.50
2022-12-17T23:11:45.112Z,14.27
2022-12-17T23:14:18.467Z,16.53
2022-12-17T23:16:51.660Z,15.77
2022-12-17T23:19:27.020Z,15.97
2022-12-17T23:22:01.324Z,17.57
2022-12-17T23:24:34.070Z,15.23
2022-12-17T23:27:07.015Z,17.03
2022-12-17T23:29:40.092Z,17.37
2022-12-17T23:32:12.891Z,17.57
2022-12-17T23:34:49.037Z,16.97
2022-12-17T23:37:24.286Z,16.97
2022-12-17T23:39:57.278Z,16.53
2022-12-17T23:42:30.391Z,16.37
2022-12-17T23:45:04.089Z,15.63
2022-12-17T23:47:37.125Z,16.53
2022-12-17T23:50:11.491Z,15.63
2022-12-17T23:52:46.050Z,15.40
2022-12-17T23:55:18.944Z,16.10
2022-12-17T23:57:59.783Z,15.23
